sensor_id;sensor_type;location;lat;lon;timestamp;temperature;humidity
21861;DHT22;11095;48.066;8.540;2022-12-18T00:01:33;-7.70;99.90
21861;DHT22;11095;48.066;8.540;2022-12-18T00:04:01;-7.70;99.90
21861;DHT22;11095;48.066;8.540;2022-12-18T00:06:29;-7.60;99.90
21861;DHT22;11095;48.066;8.540;2022-12-18T00:08:56;-7.50;99.90
21861;DHT22;11095;48.066;8.540;2022-12-18T00:11:24;-7.50;99.90
21861;DHT22;11095;48.066;8.540;2022-12-18T00:13:51;-7.40;99.90
21861;DHT22;11095;48.066;8.540;2022-12-18T00:16:20;-7.30;99.90
21861;DHT22;11095;48.066;8.540;2022-12-18T00:18:48;-7.20;99.90
21861;DHT22;11095;48.066;8.540;2022-12-18T00:21:14;-7.20;99.90
21861;DHT22;11095;48.066;8.540;2022-12-18T00:23:42;-7.10;99.90
21861;DHT22;11095;48.066;8.540;2022-12-18T00:26:11;-7.10;99.90
21861;DHT22;11095;48.066;8.540;2022-12-18T00:28:40;-7.00;99.90
21861;DHT22;11095;48.066;8.540;2022-12-18T00:31:08;-6.90;99.90
21861;DHT22;11095;48.066;8.540;2022-12-18T00:33:35;-6.90;99.90
21861;DHT22;11095;48.066;8.540;2022-12-18T00:36:05;-6.80;99.90
21861;DHT22;11095;48.066;8.540;2022-12-18T00:38:31;-6.70;99.90
21861;DHT22;11095;48.066;8.540;2022-12-18T00:40:57;-6.60;99.90
21861;DHT22;11095;48.066;8.540;2022-12-18T00:43:23;-6.60;99.90
21861;DHT22;11095;48.066;8.540;2022-12-18T00:45:49;-6.50;99.90
21861;DHT22;11095;48.066;8.540;2022-12-18T00:48:15;-6.50;99.90
21861;DHT22;11095;48.066;8.540;2022-12-18T00:50:40;-6.40;99.90
21861;DHT22;11095;48.066;8.540;2022-12-18T00:53:06;-6.30;99.90
21861;DHT22;11095;48.066;8.540;2022-12-18T00:55:32;-6.30;99.90
21861;DHT22;11095;48.066;8.540;2022-12-18T00:57:58;-6.20;99.90
21861;DHT22;11095;48.066;8.540;2022-12-18T01:00:23;-6.20;99.90
21861;DHT22;11095;48.066;8.540;2022-12-18T01:02:49;-6.20;99.90
21861;DHT22;11095;48.066;8.540;2022-12-18T01:05:15;-6.20;99.90
21861;DHT22;11095;48.066;8.540;2022-12-18T01:07:41;-6.10;99.90
21861;DHT22;11095;48.066;8.540;2022-12-18T01:10:08;-6.10;99.90
21861;DHT22;11095;48.066;8.540;2022-12-18T01:12:35;-6.00;99.90
21861;DHT22;11095;48.066;8.540;2022-12-18T01:15:01;-6.00;99.90
21861;DHT22;11095;48.066;8.540;2022-12-18T01:17:26;-6.00;99.90
21861;DHT22;11095;48.066;8.540;2022-12-18T01:19:52;-6.00;99.90
21861;DHT22;11095;48.066;8.540;2022-12-18T01:22:18;-5.90;99.90
21861;DHT22;11095;48.066;8.540;2022-12-18T01:24:44;-5.90;99.90
21861;DHT22;11095;48.066;8.540;2022-12-18T01:27:09;-5.90;99.90
21861;DHT22;11095;48.066;8.540;2022-12-18T01:29:35;-5.90;99.90
21861;DHT22;11095;48.066;8.540;2022-12-18T01:32:01;-5.90;99.90
21861;DHT22;11095;48.066;8.540;2022-12-18T01:34:26;-5.80;99.90
21861;DHT22;11095;48.066;8.540;2022-12-18T01:36:52;-5.90;99.90
21861;DHT22;11095;48.066;8.540;2022-12-18T01:39:18;-5.80;99.90
21861;DHT22;11095;48.066;8.540;2022-12-18T01:41:44;-5.80;99.90
21861;DHT22;11095;48.066;8.540;2022-12-18T01:47:32;-5.80;99.90
21861;DHT22;11095;48.066;8.540;2022-12-18T01:50:03;-5.80;99.90
21861;DHT22;11095;48.066;8.540;2022-12-18T01:52:31;-5.80;99.90
21861;DHT22;11095;48.066;8.540;2022-12-18T01:54:59;-5.80;99.90
21861;DHT22;11095;48.066;8.540;2022-12-18T01:57:26;-5.70;99.90
21861;DHT22;11095;48.066;8.540;2022-12-18T01:59:54;-5.70;99.90
21861;DHT22;11095;48.066;8.540;2022-12-18T02:02:21;-5.70;99.90
21861;DHT22;11095;48.066;8.540;2022-12-18T02:04:47;-5.70;99.90
21861;DHT22;11095;48.066;8.540;2022-12-18T02:07:39;-5.70;99.90
21861;DHT22;11095;48.066;8.540;2022-12-18T02:15:39;-5.60;99.90
21861;DHT22;11095;48.066;8.540;2022-12-18T02:18:12;-5.70;99.90
21861;DHT22;11095;48.066;8.540;2022-12-18T02:24:04;-5.70;99.90
21861;DHT22;11095;48.066;8.540;2022-12-18T02:26:48;-5.70;99.90
21861;DHT22;11095;48.066;8.540;2022-12-18T02:29:19;-5.70;99.90
21861;DHT22;11095;48.066;8.540;2022-12-18T02:31:56;-5.70;99.90
21861;DHT22;11095;48.066;8.540;2022-12-18T02:34:26;-5.60;99.90
21861;DHT22;11095;48.066;8.540;2022-12-18T02:36:54;-5.60;99.90
21861;DHT22;11095;48.066;8.540;2022-12-18T02:39:21;-5.70;99.90
21861;DHT22;11095;48.066;8.540;2022-12-18T02:41:48;-5.60;99.90
21861;DHT22;11095;48.066;8.540;2022-12-18T02:44:14;-5.60;99.90
21861;DHT22;11095;48.066;8.540;2022-12-18T02:46:43;-5.60;99.90
21861;DHT22;11095;48.066;8.540;2022-12-18T02:52:02;-5.60;99.90
21861;DHT22;11095;48.066;8.540;2022-12-18T02:54:49;-5.60;99.90
21861;DHT22;11095;48.066;8.540;2022-12-18T02:57:37;-5.60;99.90
21861;DHT22;11095;48.066;8.540;2022-12-18T03:00:14;-5.60;99.90
21861;DHT22;11095;48.066;8.540;2022-12-18T03:08:16;-5.60;99.90
21861;DHT22;11095;48.066;8.540;2022-12-18T03:10:54;-5.60;99.90
21861;DHT22;11095;48.066;8.540;2022-12-18T03:13:31;-5.60;99.90
21861;DHT22;11095;48.066;8.540;2022-12-18T03:15:59;-5.60;99.90
21861;DHT22;11095;48.066;8.540;2022-12-18T03:18:30;-5.60;99.90
21861;DHT22;11095;48.066;8.540;2022-12-18T03:21:02;-5.60;99.90
21861;DHT22;11095;48.066;8.540;2022-12-18T03:23:34;-5.50;99.90
21861;DHT22;11095;48.066;8.540;2022-12-18T03:26:07;-5.60;99.90
21861;DHT22;11095;48.066;8.540;2022-12-18T03:28:38;-5.60;99.90
21861;DHT22;11095;48.066;8.540;2022-12-18T03:31:07;-5.60;99.90
21861;DHT22;11095;48.066;8.540;2022-12-18T03:33:41;-5.60;99.90
21861;DHT22;11095;48.066;8.540;2022-12-18T03:36:07;-5.60;99.90
21861;DHT22;11095;48.066;8.540;2022-12-18T03:38:33;-5.60;99.90
21861;DHT22;11095;48.066;8.540;2022-12-18T03:44:10;-5.60;99.90
21861;DHT22;11095;48.066;8.540;2022-12-18T03:49:27;-5.60;99.90
21861;DHT22;11095;48.066;8.540;2022-12-18T03:52:17;-5.60;99.90
21861;DHT22;11095;48.066;8.540;2022-12-18T03:54:45;-5.60;99.90
21861;DHT22;11095;48.066;8.540;2022-12-18T03:57:18;-5.60;99.90
21861;DHT22;11095;48.066;8.540;2022-12-18T03:59:45;-5.50;99.90
21861;DHT22;11095;48.066;8.540;2022-12-18T04:02:13;-5.60;99.90
21861;DHT22;11095;48.066;8.540;2022-12-18T04:04:41;-5.60;99.90
21861;DHT22;11095;48.066;8.540;2022-12-18T04:07:07;-5.60;99.90
21861;DHT22;11095;48.066;8.540;2022-12-18T04:09:34;-5.60;99.90
21861;DHT22;11095;48.066;8.540;2022-12-18T04:12:01;-5.60;99.90
21861;DHT22;11095;48.066;8.540;2022-12-18T04:14:26;-5.50;99.90
21861;DHT22;11095;48.066;8.540;2022-12-18T04:16:52;-5.60;99.90
21861;DHT22;11095;48.066;8.540;2022-12-18T04:19:17;-5.60;99.90
21861;DHT22;11095;48.066;8.540;2022-12-18T04:21:43;-5.60;99.90
21861;DHT22;11095;48.066;8.540;2022-12-18T04:24:09;-5.60;99.90
21861;DHT22;11095;48.066;8.540;2022-12-18T04:26:35;-5.60;99.90
21861;DHT22;11095;48.066;8.540;2022-12-18T04:29:00;-5.60;99.90
21861;DHT22;11095;48.066;8.540;2022-12-18T04:31:26;-5.50;99.90
21861;DHT22;11095;48.066;8.540;2022-12-18T04:33:51;-5.50;99.90
21861;DHT22;11095;48.066;8.540;2022-12-18T04:36:18;-5.60;99.90
21861;DHT22;11095;48.066;8.540;2022-12-18T04:38:43;-5.50;99.90
21861;DHT22;11095;48.066;8.540;2022-12-18T04:41:09;-5.60;99.90
21861;DHT22;11095;48.066;8.540;2022-12-18T04:43:35;-5.60;99.90
21861;DHT22;11095;48.066;8.540;2022-12-18T04:46:05;-5.50;99.90
21861;DHT22;11095;48.066;8.540;2022-12-18T04:48:31;-5.60;99.90
21861;DHT22;11095;48.066;8.540;2022-12-18T04:50:56;-5.50;99.90
21861;DHT22;11095;48.066;8.540;2022-12-18T04:53:22;-5.50;99.90
21861;DHT22;11095;48.066;8.540;2022-12-18T04:55:48;-5.60;99.90
21861;DHT22;11095;48.066;8.540;2022-12-18T04:58:13;-5.60;99.90
21861;DHT22;11095;48.066;8.540;2022-12-18T05:00:39;-5.50;99.90
21861;DHT22;11095;48.066;8.540;2022-12-18T05:03:05;-5.50;99.90
21861;DHT22;11095;48.066;8.540;2022-12-18T05:05:30;-5.40;99.90
21861;DHT22;11095;48.066;8.540;2022-12-18T05:07:56;-5.40;99.90
21861;DHT22;11095;48.066;8.540;2022-12-18T05:10:22;-5.50;99.90
21861;DHT22;11095;48.066;8.540;2022-12-18T05:12:47;-5.50;99.90
21861;DHT22;11095;48.066;8.540;2022-12-18T05:15:32;-5.50;99.90
21861;DHT22;11095;48.066;8.540;2022-12-18T05:17:58;-5.50;99.90
21861;DHT22;11095;48.066;8.540;2022-12-18T05:20:25;-5.50;99.90
21861;DHT22;11095;48.066;8.540;2022-12-18T05:22:51;-5.50;99.90
21861;DHT22;11095;48.066;8.540;2022-12-18T05:25:18;-5.50;99.90
21861;DHT22;11095;48.066;8.540;2022-12-18T05:27:44;-5.50;99.90
21861;DHT22;11095;48.066;8.540;2022-12-18T05:30:11;-5.40;99.90
21861;DHT22;11095;48.066;8.540;2022-12-18T05:32:37;-5.50;99.90
21861;DHT22;11095;48.066;8.540;2022-12-18T05:35:04;-5.40;99.90
21861;DHT22;11095;48.066;8.540;2022-12-18T05:37:30;-5.50;99.90
21861;DHT22;11095;48.066;8.540;2022-12-18T05:39:55;-5.50;99.90
21861;DHT22;11095;48.066;8.540;2022-12-18T05:42:21;-5.40;99.90
21861;DHT22;11095;48.066;8.540;2022-12-18T05:44:47;-5.40;99.90
21861;DHT22;11095;48.066;8.540;2022-12-18T05:47:12;-5.30;99.90
21861;DHT22;11095;48.066;8.540;2022-12-18T05:49:38;-5.30;99.90
21861;DHT22;11095;48.066;8.540;2022-12-18T05:52:04;-5.30;99.90
21861;DHT22;11095;48.066;8.540;2022-12-18T05:54:29;-5.30;99.90
21861;DHT22;11095;48.066;8.540;2022-12-18T05:56:56;-5.30;99.90
21861;DHT22;11095;48.066;8.540;2022-12-18T05:59:22;-5.30;99.90
21861;DHT22;11095;48.066;8.540;2022-12-18T06:01:48;-5.30;99.90
21861;DHT22;11095;48.066;8.540;2022-12-18T06:04:14;-5.40;99.90
21861;DHT22;11095;48.066;8.540;2022-12-18T06:06:40;-5.30;99.90
21861;DHT22;11095;48.066;8.540;2022-12-18T06:09:05;-5.30;99.90
21861;DHT22;11095;48.066;8.540;2022-12-18T06:11:34;-5.30;99.90
21861;DHT22;11095;48.066;8.540;2022-12-18T06:14:00;-5.30;99.90
21861;DHT22;11095;48.066;8.540;2022-12-18T06:16:27;-5.30;99.90
21861;DHT22;11095;48.066;8.540;2022-12-18T06:18:56;-5.20;99.90
21861;DHT22;11095;48.066;8.540;2022-12-18T06:21:22;-5.20;99.90
21861;DHT22;11095;48.066;8.540;2022-12-18T06:23:48;-5.20;99.90
21861;DHT22;11095;48.066;8.540;2022-12-18T06:26:15;-5.20;99.90
21861;DHT22;11095;48.066;8.540;2022-12-18T06:28:41;-5.20;99.90
21861;DHT22;11095;48.066;8.540;2022-12-18T06:31:07;-5.20;99.90
21861;DHT22;11095;48.066;8.540;2022-12-18T06:33:34;-5.20;99.90
21861;DHT22;11095;48.066;8.540;2022-12-18T06:36:01;-5.20;99.90
21861;DHT22;11095;48.066;8.540;2022-12-18T06:38:28;-5.20;99.90
21861;DHT22;11095;48.066;8.540;2022-12-18T06:40:53;-5.20;99.90
21861;DHT22;11095;48.066;8.540;2022-12-18T06:43:19;-5.20;99.90
21861;DHT22;11095;48.066;8.540;2022-12-18T06:45:45;-5.10;99.90
21861;DHT22;11095;48.066;8.540;2022-12-18T06:48:14;-5.20;99.90
21861;DHT22;11095;48.066;8.540;2022-12-18T06:50:42;-5.20;99.90
21861;DHT22;11095;48.066;8.540;2022-12-18T06:53:08;-5.10;99.90
21861;DHT22;11095;48.066;8.540;2022-12-18T06:55:33;-5.10;99.90
21861;DHT22;11095;48.066;8.540;2022-12-18T06:57:59;-5.10;99.90
21861;DHT22;11095;48.066;8.540;2022-12-18T07:00:24;-5.10;99.90
21861;DHT22;11095;48.066;8.540;2022-12-18T07:02:50;-5.00;99.90
21861;DHT22;11095;48.066;8.540;2022-12-18T07:05:16;-5.00;99.90
21861;DHT22;11095;48.066;8.540;2022-12-18T07:07:41;-5.00;99.90
21861;DHT22;11095;48.066;8.540;2022-12-18T07:10:07;-5.00;99.90
21861;DHT22;11095;48.066;8.540;2022-12-18T07:12:33;-5.00;99.90
21861;DHT22;11095;48.066;8.540;2022-12-18T07:14:59;-5.00;99.90
21861;DHT22;11095;48.066;8.540;2022-12-18T07:17:24;-5.00;99.90
21861;DHT22;11095;48.066;8.540;2022-12-18T07:19:50;-5.00;99.90
21861;DHT22;11095;48.066;8.540;2022-12-18T07:22:15;-4.90;99.90
21861;DHT22;11095;48.066;8.540;2022-12-18T07:24:41;-5.00;99.90
21861;DHT22;11095;48.066;8.540;2022-12-18T07:27:07;-5.00;99.90
21861;DHT22;11095;48.066;8.540;2022-12-18T07:29:32;-5.00;99.90
21861;DHT22;11095;48.066;8.540;2022-12-18T07:31:58;-4.90;99.90
21861;DHT22;11095;48.066;8.540;2022-12-18T07:34:24;-5.00;99.90
21861;DHT22;11095;48.066;8.540;2022-12-18T07:36:49;-5.00;99.90
21861;DHT22;11095;48.066;8.540;2022-12-18T07:39:15;-5.00;99.90
21861;DHT22;11095;48.066;8.540;2022-12-18T07:41:41;-4.90;99.90
21861;DHT22;11095;48.066;8.540;2022-12-18T07:44:29;-5.00;99.90
21861;DHT22;11095;48.066;8.540;2022-12-18T07:46:55;-4.90;99.90
21861;DHT22;11095;48.066;8.540;2022-12-18T07:49:20;-5.00;99.90
21861;DHT22;11095;48.066;8.540;2022-12-18T07:51:46;-4.90;99.90
21861;DHT22;11095;48.066;8.540;2022-12-18T07:54:14;-4.90;99.90
21861;DHT22;11095;48.066;8.540;2022-12-18T07:56:40;-4.90;99.90
21861;DHT22;11095;48.066;8.540;2022-12-18T07:59:06;-4.90;99.90
21861;DHT22;11095;48.066;8.540;2022-12-18T08:01:33;-4.90;99.90
21861;DHT22;11095;48.066;8.540;2022-12-18T08:03:59;-4.90;99.90
21861;DHT22;11095;48.066;8.540;2022-12-18T08:06:25;-4.90;99.90
21861;DHT22;11095;48.066;8.540;2022-12-18T08:08:55;-4.80;99.90
21861;DHT22;11095;48.066;8.540;2022-12-18T08:11:22;-4.80;99.90
21861;DHT22;11095;48.066;8.540;2022-12-18T08:13:48;-4.80;99.90
21861;DHT22;11095;48.066;8.540;2022-12-18T08:16:13;-4.90;99.90
21861;DHT22;11095;48.066;8.540;2022-12-18T08:18:39;-4.80;99.90
21861;DHT22;11095;48.066;8.540;2022-12-18T08:21:12;-4.80;99.90
21861;DHT22;11095;48.066;8.540;2022-12-18T08:23:38;-4.80;99.90
21861;DHT22;11095;48.066;8.540;2022-12-18T08:26:05;-4.70;99.90
21861;DHT22;11095;48.066;8.540;2022-12-18T08:28:30;-4.80;99.90
21861;DHT22;11095;48.066;8.540;2022-12-18T08:30:56;-4.70;99.90
21861;DHT22;11095;48.066;8.540;2022-12-18T08:33:22;-4.70;99.90
21861;DHT22;11095;48.066;8.540;2022-12-18T08:35:47;-4.60;99.90
21861;DHT22;11095;48.066;8.540;2022-12-18T08:38:13;-4.60;99.90
21861;DHT22;11095;48.066;8.540;2022-12-18T08:40:39;-4.60;99.90
21861;DHT22;11095;48.066;8.540;2022-12-18T08:43:04;-4.60;99.90
21861;DHT22;11095;48.066;8.540;2022-12-18T08:45:49;-4.60;99.90
21861;DHT22;11095;48.066;8.540;2022-12-18T08:48:14;-4.60;99.90
21861;DHT22;11095;48.066;8.540;2022-12-18T08:50:40;-4.60;99.90
21861;DHT22;11095;48.066;8.540;2022-12-18T08:53:06;-4.60;99.90
21861;DHT22;11095;48.066;8.540;2022-12-18T08:55:32;-4.50;99.90
21861;DHT22;11095;48.066;8.540;2022-12-18T08:57:57;-4.40;99.90
21861;DHT22;11095;48.066;8.540;2022-12-18T09:00:23;-4.40;99.90
21861;DHT22;11095;48.066;8.540;2022-12-18T09:02:49;-4.30;99.90
21861;DHT22;11095;48.066;8.540;2022-12-18T09:05:14;-4.30;99.90
21861;DHT22;11095;48.066;8.540;2022-12-18T09:07:40;-4.40;99.90
21861;DHT22;11095;48.066;8.540;2022-12-18T09:10:06;-4.30;99.90
21861;DHT22;11095;48.066;8.540;2022-12-18T09:12:32;-4.30;99.90
21861;DHT22;11095;48.066;8.540;2022-12-18T09:14:57;-4.40;99.90
21861;DHT22;11095;48.066;8.540;2022-12-18T09:17:23;-4.30;99.90
21861;DHT22;11095;48.066;8.540;2022-12-18T09:19:49;-4.30;99.90
21861;DHT22;11095;48.066;8.540;2022-12-18T09:22:14;-4.30;99.90
21861;DHT22;11095;48.066;8.540;2022-12-18T09:24:40;-4.20;99.90
21861;DHT22;11095;48.066;8.540;2022-12-18T09:27:06;-4.20;99.90
21861;DHT22;11095;48.066;8.540;2022-12-18T09:29:32;-4.30;99.90
21861;DHT22;11095;48.066;8.540;2022-12-18T09:31:58;-4.20;99.90
21861;DHT22;11095;48.066;8.540;2022-12-18T09:34:23;-4.20;99.90
21861;DHT22;11095;48.066;8.540;2022-12-18T09:36:50;-4.20;99.90
21861;DHT22;11095;48.066;8.540;2022-12-18T09:39:16;-4.20;99.90
21861;DHT22;11095;48.066;8.540;2022-12-18T09:41:53;-4.20;99.90
21861;DHT22;11095;48.066;8.540;2022-12-18T09:44:39;-4.20;99.90
21861;DHT22;11095;48.066;8.540;2022-12-18T09:47:14;-4.20;99.90
21861;DHT22;11095;48.066;8.540;2022-12-18T09:49:44;-4.10;99.90
21861;DHT22;11095;48.066;8.540;2022-12-18T09:52:21;-4.00;99.90
21861;DHT22;11095;48.066;8.540;2022-12-18T09:55:25;-3.90;99.90
21861;DHT22;11095;48.066;8.540;2022-12-18T09:58:00;-3.90;99.90
21861;DHT22;11095;48.066;8.540;2022-12-18T10:00:28;-3.80;99.90
21861;DHT22;11095;48.066;8.540;2022-12-18T10:03:01;-3.70;99.90
21861;DHT22;11095;48.066;8.540;2022-12-18T10:08:17;-3.80;99.90
21861;DHT22;11095;48.066;8.540;2022-12-18T10:10:53;-3.70;99.90
21861;DHT22;11095;48.066;8.540;2022-12-18T10:13:39;-3.80;99.90
21861;DHT22;11095;48.066;8.540;2022-12-18T10:16:15;-3.70;99.90
21861;DHT22;11095;48.066;8.540;2022-12-18T10:19:02;-3.60;99.90
21861;DHT22;11095;48.066;8.540;2022-12-18T10:24:24;-3.50;99.90
21861;DHT22;11095;48.066;8.540;2022-12-18T10:27:10;-3.50;99.90
21861;DHT22;11095;48.066;8.540;2022-12-18T10:29:38;-3.50;99.90
21861;DHT22;11095;48.066;8.540;2022-12-18T10:35:24;-3.50;99.90
21861;DHT22;11095;48.066;8.540;2022-12-18T10:44:20;-3.50;99.90
21861;DHT22;11095;48.066;8.540;2022-12-18T10:47:02;-3.50;99.90
21861;DHT22;11095;48.066;8.540;2022-12-18T10:49:53;-3.40;99.90
21861;DHT22;11095;48.066;8.540;2022-12-18T10:52:27;-3.40;99.90
21861;DHT22;11095;48.066;8.540;2022-12-18T10:55:15;-3.30;99.90
21861;DHT22;11095;48.066;8.540;2022-12-18T10:57:42;-3.10;99.90
21861;DHT22;11095;48.066;8.540;2022-12-18T11:00:22;-3.20;99.90
21861;DHT22;11095;48.066;8.540;2022-12-18T11:02:55;-3.20;99.90
21861;DHT22;11095;48.066;8.540;2022-12-18T11:05:27;-3.20;99.90
21861;DHT22;11095;48.066;8.540;2022-12-18T11:07:53;-3.20;99.90
21861;DHT22;11095;48.066;8.540;2022-12-18T11:10:22;-3.20;99.90
21861;DHT22;11095;48.066;8.540;2022-12-18T11:12:48;-3.20;99.90
21861;DHT22;11095;48.066;8.540;2022-12-18T11:15:29;-3.20;99.90
21861;DHT22;11095;48.066;8.540;2022-12-18T11:17:56;-3.20;99.90
21861;DHT22;11095;48.066;8.540;2022-12-18T11:20:32;-3.20;99.90
21861;DHT22;11095;48.066;8.540;2022-12-18T11:22:59;-3.20;99.90
21861;DHT22;11095;48.066;8.540;2022-12-18T11:25:25;-3.20;99.90
21861;DHT22;11095;48.066;8.540;2022-12-18T11:27:56;-3.20;99.90
21861;DHT22;11095;48.066;8.540;2022-12-18T11:30:32;-3.20;99.90
21861;DHT22;11095;48.066;8.540;2022-12-18T11:33:09;-3.20;99.90
21861;DHT22;11095;48.066;8.540;2022-12-18T11:35:58;-3.20;99.90
21861;DHT22;11095;48.066;8.540;2022-12-18T11:38:44;-3.30;99.90
21861;DHT22;11095;48.066;8.540;2022-12-18T11:44:36;-3.00;99.90
21861;DHT22;11095;48.066;8.540;2022-12-18T11:49:56;-3.00;99.90
21861;DHT22;11095;48.066;8.540;2022-12-18T11:52:38;-3.00;99.90
21861;DHT22;11095;48.066;8.540;2022-12-18T11:55:15;-3.00;99.90
21861;DHT22;11095;48.066;8.540;2022-12-18T11:57:52;-2.90;99.90
21861;DHT22;11095;48.066;8.540;2022-12-18T12:00:23;-2.90;99.90
21861;DHT22;11095;48.066;8.540;2022-12-18T12:12:22;-2.70;99.90
21861;DHT22;11095;48.066;8.540;2022-12-18T12:17:42;-2.60;99.90
21861;DHT22;11095;48.066;8.540;2022-12-18T12:20:20;-2.50;99.90
21861;DHT22;11095;48.066;8.540;2022-12-18T12:25:37;-2.50;99.90
21861;DHT22;11095;48.066;8.540;2022-12-18T12:28:31;-2.60;99.90
21861;DHT22;11095;48.066;8.540;2022-12-18T12:38:58;-2.40;99.90
21861;DHT22;11095;48.066;8.540;2022-12-18T12:41:31;-2.30;99.90
21861;DHT22;11095;48.066;8.540;2022-12-18T12:44:22;-2.30;99.90
21861;DHT22;11095;48.066;8.540;2022-12-18T12:46:52;-2.40;99.90
21861;DHT22;11095;48.066;8.540;2022-12-18T12:49:25;-2.50;99.90
21861;DHT22;11095;48.066;8.540;2022-12-18T12:52:06;-2.50;99.90
21861;DHT22;11095;48.066;8.540;2022-12-18T12:54:33;-2.60;99.90
21861;DHT22;11095;48.066;8.540;2022-12-18T12:57:22;-2.60;99.90
21861;DHT22;11095;48.066;8.540;2022-12-18T13:00:12;-2.60;99.90
21861;DHT22;11095;48.066;8.540;2022-12-18T13:05:53;-2.70;99.90
21861;DHT22;11095;48.066;8.540;2022-12-18T13:08:28;-2.70;99.90
21861;DHT22;11095;48.066;8.540;2022-12-18T13:10:55;-2.70;99.90
21861;DHT22;11095;48.066;8.540;2022-12-18T13:13:52;-2.80;99.90
21861;DHT22;11095;48.066;8.540;2022-12-18T13:16:20;-2.80;99.90
21861;DHT22;11095;48.066;8.540;2022-12-18T13:18:56;-2.90;99.90
21861;DHT22;11095;48.066;8.540;2022-12-18T13:21:32;-2.90;99.90
21861;DHT22;11095;48.066;8.540;2022-12-18T13:24:27;-2.90;99.90
21861;DHT22;11095;48.066;8.540;2022-12-18T13:27:24;-2.90;99.90
21861;DHT22;11095;48.066;8.540;2022-12-18T13:29:47;-2.90;99.90
21861;DHT22;11095;48.066;8.540;2022-12-18T13:32:21;-2.90;99.90
21861;DHT22;11095;48.066;8.540;2022-12-18T13:34:47;-2.90;99.90
21861;DHT22;11095;48.066;8.540;2022-12-18T13:39:57;-3.00;99.90
21861;DHT22;11095;48.066;8.540;2022-12-18T13:45:43;-3.00;99.90
21861;DHT22;11095;48.066;8.540;2022-12-18T13:48:19;-3.00;99.90
21861;DHT22;11095;48.066;8.540;2022-12-18T13:50:53;-3.00;99.90
21861;DHT22;11095;48.066;8.540;2022-12-18T13:53:26;-3.00;99.90
21861;DHT22;11095;48.066;8.540;2022-12-18T13:55:53;-3.10;99.90
21861;DHT22;11095;48.066;8.540;2022-12-18T13:58:19;-3.20;99.90
21861;DHT22;11095;48.066;8.540;2022-12-18T14:00:44;-3.20;99.90
21861;DHT22;11095;48.066;8.540;2022-12-18T14:03:28;-3.30;99.90
21861;DHT22;11095;48.066;8.540;2022-12-18T14:06:00;-3.30;99.90
21861;DHT22;11095;48.066;8.540;2022-12-18T14:08:33;-3.30;99.90
21861;DHT22;11095;48.066;8.540;2022-12-18T14:11:00;-3.30;99.90
21861;DHT22;11095;48.066;8.540;2022-12-18T14:13:31;-3.30;99.90
21861;DHT22;11095;48.066;8.540;2022-12-18T14:15:57;-3.20;99.90
21861;DHT22;11095;48.066;8.540;2022-12-18T14:18:52;-3.10;99.90
21861;DHT22;11095;48.066;8.540;2022-12-18T14:21:23;-3.10;99.90
21861;DHT22;11095;48.066;8.540;2022-12-18T14:26:34;-3.20;99.90
21861;DHT22;11095;48.066;8.540;2022-12-18T14:29:27;-3.20;99.90
21861;DHT22;11095;48.066;8.540;2022-12-18T14:32:16;-3.20;99.90
21861;DHT22;11095;48.066;8.540;2022-12-18T14:34:43;-3.20;99.90
21861;DHT22;11095;48.066;8.540;2022-12-18T14:37:14;-3.20;99.90
21861;DHT22;11095;48.066;8.540;2022-12-18T14:39:40;-3.20;99.90
21861;DHT22;11095;48.066;8.540;2022-12-18T14:42:20;-3.20;99.90
21861;DHT22;11095;48.066;8.540;2022-12-18T14:44:46;-3.20;99.90
21861;DHT22;11095;48.066;8.540;2022-12-18T14:47:15;-3.20;99.90
21861;DHT22;11095;48.066;8.540;2022-12-18T14:49:42;-3.30;99.90
21861;DHT22;11095;48.066;8.540;2022-12-18T14:52:26;-3.30;99.90
21861;DHT22;11095;48.066;8.540;2022-12-18T14:54:53;-3.30;99.90
21861;DHT22;11095;48.066;8.540;2022-12-18T14:57:26;-3.40;99.90
21861;DHT22;11095;48.066;8.540;2022-12-18T15:00:10;-3.40;99.90
21861;DHT22;11095;48.066;8.540;2022-12-18T15:02:43;-3.40;99.90
21861;DHT22;11095;48.066;8.540;2022-12-18T15:07:49;-3.50;99.90
21861;DHT22;11095;48.066;8.540;2022-12-18T15:12:49;-3.40;99.90
21861;DHT22;11095;48.066;8.540;2022-12-18T15:18:13;-3.50;99.90
21861;DHT22;11095;48.066;8.540;2022-12-18T15:20:53;-3.60;99.90
21861;DHT22;11095;48.066;8.540;2022-12-18T15:23:24;-3.60;99.90
21861;DHT22;11095;48.066;8.540;2022-12-18T15:26:07;-3.70;99.90
21861;DHT22;11095;48.066;8.540;2022-12-18T15:36:19;-3.70;99.90
21861;DHT22;11095;48.066;8.540;2022-12-18T15:38:49;-3.70;99.90
21861;DHT22;11095;48.066;8.540;2022-12-18T15:41:17;-3.70;99.90
21861;DHT22;11095;48.066;8.540;2022-12-18T15:43:43;-3.80;99.90
21861;DHT22;11095;48.066;8.540;2022-12-18T15:46:15;-3.80;99.90
21861;DHT22;11095;48.066;8.540;2022-12-18T15:48:46;-3.80;99.90
21861;DHT22;11095;48.066;8.540;2022-12-18T15:51:24;-3.90;99.90
21861;DHT22;11095;48.066;8.540;2022-12-18T15:53:54;-3.90;99.90
21861;DHT22;11095;48.066;8.540;2022-12-18T15:56:20;-3.90;99.90
21861;DHT22;11095;48.066;8.540;2022-12-18T15:59:10;-4.00;99.90
21861;DHT22;11095;48.066;8.540;2022-12-18T16:01:37;-4.00;99.90
21861;DHT22;11095;48.066;8.540;2022-12-18T16:04:03;-4.00;99.90
21861;DHT22;11095;48.066;8.540;2022-12-18T16:06:28;-4.00;99.90
21861;DHT22;11095;48.066;8.540;2022-12-18T16:08:54;-4.00;99.90
21861;DHT22;11095;48.066;8.540;2022-12-18T16:11:40;-4.00;99.90
21861;DHT22;11095;48.066;8.540;2022-12-18T16:14:21;-3.90;99.90
21861;DHT22;11095;48.066;8.540;2022-12-18T16:16:51;-4.00;99.90
21861;DHT22;11095;48.066;8.540;2022-12-18T16:19:17;-3.90;99.90
21861;DHT22;11095;48.066;8.540;2022-12-18T16:21:43;-3.90;99.90
21861;DHT22;11095;48.066;8.540;2022-12-18T16:24:21;-3.90;99.90
21861;DHT22;11095;48.066;8.540;2022-12-18T16:26:50;-3.90;99.90
21861;DHT22;11095;48.066;8.540;2022-12-18T16:29:20;-3.90;99.90
21861;DHT22;11095;48.066;8.540;2022-12-18T16:31:50;-3.90;99.90
21861;DHT22;11095;48.066;8.540;2022-12-18T16:34:22;-3.90;99.90
21861;DHT22;11095;48.066;8.540;2022-12-18T16:36:48;-3.90;99.90
21861;DHT22;11095;48.066;8.540;2022-12-18T16:39:15;-3.80;99.90
21861;DHT22;11095;48.066;8.540;2022-12-18T16:41:40;-3.90;99.90
21861;DHT22;11095;48.066;8.540;2022-12-18T16:44:06;-3.90;99.90
21861;DHT22;11095;48.066;8.540;2022-12-18T16:46:32;-3.90;99.90
21861;DHT22;11095;48.066;8.540;2022-12-18T16:48:58;-3.80;99.90
21861;DHT22;11095;48.066;8.540;2022-12-18T16:51:28;-3.80;99.90
21861;DHT22;11095;48.066;8.540;2022-12-18T16:53:54;-3.80;99.90
21861;DHT22;11095;48.066;8.540;2022-12-18T16:56:20;-3.70;99.90
21861;DHT22;11095;48.066;8.540;2022-12-18T16:58:53;-3.80;99.90
21861;DHT22;11095;48.066;8.540;2022-12-18T17:01:20;-3.70;99.90
21861;DHT22;11095;48.066;8.540;2022-12-18T17:03:57;-3.70;99.90
21861;DHT22;11095;48.066;8.540;2022-12-18T17:06:24;-3.70;99.90
21861;DHT22;11095;48.066;8.540;2022-12-18T17:08:55;-3.80;99.90
21861;DHT22;11095;48.066;8.540;2022-12-18T17:11:23;-3.80;99.90
21861;DHT22;11095;48.066;8.540;2022-12-18T17:13:49;-3.80;99.90
21861;DHT22;11095;48.066;8.540;2022-12-18T17:16:15;-3.80;99.90
21861;DHT22;11095;48.066;8.540;2022-12-18T17:18:42;-3.80;99.90
21861;DHT22;11095;48.066;8.540;2022-12-18T17:21:09;-3.80;99.90
21861;DHT22;11095;48.066;8.540;2022-12-18T17:23:36;-3.80;99.90
21861;DHT22;11095;48.066;8.540;2022-12-18T17:26:02;-3.90;99.90